createdAt,value
2023-02-04T00:03:21.894Z,-145.56
2023-02-04T00:06:48.607Z,-145.56
2023-02-04T00:10:15.429Z,-145.56
2023-02-04T00:13:42.151Z,-145.56
2023-02-04T00:17:11.648Z,-145.56
2023-02-04T00:20:39.335Z,-145.56
2023-02-04T00:24:06.220Z,-145.56
2023-02-04T00:27:33.128Z,-145.56
2023-02-04T00:31:00.311Z,-145.56
2023-02-04T00:34:27.063Z,-145.56
2023-02-04T00:37:53.773Z,-145.56
2023-02-04T00:41:23.090Z,-145.56
2023-02-04T00:44:49.829Z,-145.56
2023-02-04T00:48:17.071Z,-145.56
2023-02-04T00:51:46.599Z,-145.56
2023-02-04T00:55:15.731Z,-145.56
2023-02-04T00:58:43.909Z,-145.56
2023-02-04T01:02:10.593Z,-145.56
2023-02-04T01:05:37.336Z,-145.56
2023-02-04T01:09:04.950Z,-145.56
2023-02-04T01:12:31.786Z,-145.56
2023-02-04T01:15:59.377Z,-145.56
2023-02-04T01:19:26.130Z,-145.56
2023-02-04T01:22:53.367Z,-145.56
2023-02-04T01:26:20.265Z,-145.56
2023-02-04T01:29:47.116Z,-145.56
2023-02-04T01:33:13.831Z,-145.56
2023-02-04T01:36:40.558Z,-145.56
2023-02-04T01:40:07.886Z,-145.56
2023-02-04T01:43:34.924Z,-145.56
2023-02-04T01:47:01.760Z,-145.56
2023-02-04T01:50:29.146Z,-145.56
2023-02-04T01:53:56.169Z,-145.56
2023-02-04T01:57:23.540Z,-145.56
2023-02-04T02:00:52.011Z,-145.56
2023-02-04T02:04:20.757Z,-145.56
2023-02-04T02:07:50.105Z,-145.56
2023-02-04T02:11:16.970Z,-145.56
2023-02-04T02:14:43.680Z,-145.56
2023-02-04T02:18:10.767Z,-145.56
2023-02-04T02:21:53.188Z,-145.56
2023-02-04T02:25:29.379Z,-145.56
2023-02-04T02:28:57.146Z,-145.56
2023-02-04T02:32:23.897Z,-145.56
2023-02-04T02:35:52.747Z,-145.56
2023-02-04T02:39:20.048Z,-145.56
2023-02-04T02:42:48.984Z,-145.56
2023-02-04T02:46:25.999Z,-145.56
2023-02-04T02:49:53.630Z,-145.56
2023-02-04T02:53:21.832Z,-145.56
2023-02-04T02:56:53.192Z,-145.56
2023-02-04T03:00:25.048Z,-145.56
2023-02-04T03:03:59.172Z,-145.56
2023-02-04T03:07:26.449Z,-145.56
2023-02-04T03:10:53.326Z,-145.56
2023-02-04T03:14:21.134Z,-145.56
2023-02-04T03:17:48.038Z,-145.56
2023-02-04T03:21:15.521Z,-145.56
2023-02-04T03:24:42.297Z,-145.56
2023-02-04T03:28:10.422Z,-145.56
2023-02-04T03:31:40.537Z,-145.56
2023-02-04T03:35:07.287Z,-145.56
2023-02-04T03:38:34.508Z,-145.56
2023-02-04T03:42:01.238Z,-145.56
2023-02-04T03:45:32.438Z,-145.56
2023-02-04T03:49:01.781Z,-145.56
2023-02-04T03:52:30.760Z,-145.56
2023-02-04T03:55:57.446Z,-145.56
2023-02-04T03:59:24.404Z,-145.56
2023-02-04T04:02:54.219Z,-145.56
2023-02-04T04:06:20.934Z,-145.56
2023-02-04T04:09:47.629Z,-145.56
2023-02-04T04:13:14.356Z,-145.56
2023-02-04T04:16:41.124Z,-145.56
2023-02-04T04:20:08.158Z,-145.56
2023-02-04T04:23:35.170Z,-145.56
2023-02-04T04:27:01.902Z,-145.56
2023-02-04T04:30:28.645Z,-145.56
2023-02-04T04:33:55.381Z,-145.56
2023-02-04T04:37:22.088Z,-145.56
2023-02-04T04:40:48.754Z,-145.56
2023-02-04T04:44:15.565Z,-145.56
2023-02-04T04:47:43.400Z,-145.56
2023-02-04T04:51:10.561Z,-145.56
2023-02-04T04:54:37.216Z,-145.56
2023-02-04T04:58:04.686Z,-145.56
2023-02-04T05:01:31.445Z,-145.56
2023-02-04T05:04:58.217Z,-145.56
2023-02-04T05:08:25.825Z,-145.56
2023-02-04T05:11:52.527Z,-145.56
2023-02-04T05:15:19.248Z,-145.56
2023-02-04T05:18:46.003Z,-145.56
2023-02-04T05:22:12.718Z,-145.56
2023-02-04T05:25:42.424Z,-145.56
2023-02-04T05:29:10.757Z,-145.56
2023-02-04T05:32:37.751Z,-145.56
2023-02-04T05:36:04.897Z,-145.56
2023-02-04T05:39:31.579Z,-145.56
2023-02-04T05:42:58.324Z,-145.56
2023-02-04T05:46:25.007Z,-145.56
2023-02-04T05:49:51.768Z,-145.56
2023-02-04T05:53:18.668Z,-145.56
2023-02-04T05:56:46.100Z,-145.56
2023-02-04T06:00:13.154Z,-145.56
2023-02-04T06:03:39.929Z,-145.56
2023-02-04T06:07:06.733Z,-145.56
2023-02-04T06:10:33.597Z,-145.56
2023-02-04T06:14:00.560Z,-145.56
2023-02-04T06:17:29.898Z,-145.56
2023-02-04T06:20:56.599Z,-145.56
2023-02-04T06:24:26.266Z,-145.56
2023-02-04T06:27:53.007Z,-145.56
2023-02-04T06:31:21.727Z,-145.56
2023-02-04T06:34:48.562Z,-145.56
2023-02-04T06:38:15.278Z,-145.56
2023-02-04T06:41:42.128Z,-145.56
2023-02-04T06:45:08.961Z,-145.56
2023-02-04T06:48:38.012Z,-145.56
2023-02-04T06:52:05.795Z,-145.56
2023-02-04T06:55:32.505Z,-145.56
2023-02-04T06:58:59.274Z,-145.56
2023-02-04T07:02:26.096Z,-145.56
2023-02-04T07:05:54.177Z,-145.56
2023-02-04T07:09:20.900Z,-145.56
2023-02-04T07:12:47.616Z,-145.56
2023-02-04T07:16:14.438Z,-145.56
2023-02-04T07:19:41.178Z,-145.56
2023-02-04T07:23:07.906Z,-145.56
2023-02-04T07:26:34.668Z,-145.56
2023-02-04T07:30:01.430Z,-145.56
2023-02-04T07:33:30.148Z,-145.56
2023-02-04T07:36:56.902Z,-145.56
2023-02-04T07:40:23.631Z,-145.56
2023-02-04T07:43:53.153Z,-145.56
2023-02-04T07:47:19.900Z,-145.56
2023-02-04T07:50:46.722Z,-145.56
2023-02-04T07:54:15.951Z,-145.56
2023-02-04T07:57:42.597Z,-145.56
2023-02-04T08:01:09.768Z,-145.56
2023-02-04T08:04:38.039Z,-145.56
2023-02-04T08:08:04.837Z,-145.56
2023-02-04T08:11:31.521Z,-145.56
2023-02-04T08:15:01.453Z,-145.56
2023-02-04T08:18:28.233Z,-145.56
2023-02-04T08:21:54.964Z,-145.56
2023-02-04T08:25:22.384Z,-145.56
2023-02-04T08:28:49.061Z,-145.56
2023-02-04T08:32:16.284Z,-145.56
2023-02-04T08:35:00.114Z,-145.56
2023-02-04T08:37:30.240Z,-145.56
2023-02-04T08:40:03.494Z,-145.56
2023-02-04T08:42:32.346Z,0.87
2023-02-04T08:45:02.003Z,-145.56
2023-02-04T08:47:31.386Z,-145.56
2023-02-04T08:50:00.289Z,-145.56
2023-02-04T08:52:29.272Z,-145.56
2023-02-04T08:54:58.229Z,-145.56
2023-02-04T08:57:26.829Z,-145.56
2023-02-04T08:59:55.303Z,-145.56
2023-02-04T09:02:24.019Z,-145.56
2023-02-04T09:04:52.364Z,-145.56
2023-02-04T09:07:21.721Z,-145.56
2023-02-04T09:09:50.637Z,-145.56
2023-02-04T09:12:21.092Z,-145.56
2023-02-04T09:14:53.171Z,-145.56
2023-02-04T09:17:35.785Z,-145.56
2023-02-04T09:20:44.081Z,-145.56
2023-02-04T09:23:18.996Z,-145.56
2023-02-04T09:25:56.166Z,-145.56
2023-02-04T09:28:27.391Z,-145.56
2023-02-04T09:31:01.587Z,-145.56
2023-02-04T09:33:55.526Z,-145.56
2023-02-04T09:36:34.328Z,-145.56
2023-02-04T09:39:23.490Z,-145.56
2023-02-04T09:42:19.688Z,-145.56
2023-02-04T09:45:14.874Z,-145.56
2023-02-04T09:47:45.207Z,-145.56
2023-02-04T09:50:25.563Z,-145.56
2023-02-04T09:53:10.039Z,-145.56
2023-02-04T09:55:51.397Z,-145.56
2023-02-04T09:58:33.906Z,-145.56
2023-02-04T10:01:20.859Z,-145.56
2023-02-04T10:03:51.651Z,-145.56
2023-02-04T10:06:23.830Z,-145.56
2023-02-04T10:08:54.347Z,-145.56
2023-02-04T10:11:26.552Z,-145.56
2023-02-04T10:13:56.740Z,-145.56
2023-02-04T10:16:34.103Z,-145.56
2023-02-04T10:19:07.640Z,-145.56
2023-02-04T10:21:37.569Z,-145.56
2023-02-04T10:24:25.713Z,-145.56
2023-02-04T10:27:09.548Z,-145.56
2023-02-04T10:29:42.256Z,-145.56
2023-02-04T10:32:33.541Z,-145.56
2023-02-04T10:35:03.469Z,-145.56
2023-02-04T10:37:32.333Z,-145.56
2023-02-04T10:40:00.788Z,-145.56
2023-02-04T10:42:30.972Z,-145.56
2023-02-04T10:45:02.149Z,-145.56
2023-02-04T10:47:31.534Z,-145.56
2023-02-04T10:50:14.653Z,-145.56
2023-02-04T10:52:47.362Z,-145.56
2023-02-04T10:55:18.443Z,-145.56
2023-02-04T10:57:49.954Z,-145.56
2023-02-04T11:00:25.443Z,-145.56
2023-02-04T11:03:00.759Z,-145.56
2023-02-04T11:05:34.505Z,-145.56
2023-02-04T11:08:17.850Z,-145.56
2023-02-04T11:10:46.683Z,-145.56
2023-02-04T11:13:24.530Z,0.87
2023-02-04T11:16:12.642Z,-145.56
2023-02-04T11:18:53.509Z,-145.56
2023-02-04T11:21:26.949Z,-145.56
2023-02-04T11:24:23.080Z,-145.56
2023-02-04T11:27:04.726Z,-145.56
2023-02-04T11:29:38.179Z,-145.56
2023-02-04T11:32:32.192Z,-145.56
2023-02-04T11:35:14.258Z,-145.56
2023-02-04T11:37:45.121Z,-145.56
2023-02-04T11:40:21.587Z,-145.56
2023-02-04T11:42:55.769Z,-145.56
2023-02-04T11:45:35.454Z,-145.56
2023-02-04T11:48:31.767Z,-145.56
2023-02-04T11:51:02.012Z,-145.56
2023-02-04T11:53:34.224Z,-145.56
2023-02-04T11:57:01.417Z,-145.56
2023-02-04T11:59:37.858Z,-145.56
2023-02-04T12:02:28.888Z,-145.56
2023-02-04T12:05:08.442Z,-145.56
2023-02-04T12:07:37.049Z,0.87
2023-02-04T12:10:13.522Z,-145.56
2023-02-04T12:12:45.285Z,0.87
2023-02-04T12:15:37.603Z,0.87
2023-02-04T12:18:08.298Z,0.87
2023-02-04T12:20:39.768Z,-145.56
2023-02-04T12:23:08.620Z,0.87
2023-02-04T12:25:36.914Z,0.87
2023-02-04T12:28:05.412Z,-145.56
2023-02-04T12:30:33.799Z,-145.56
2023-02-04T12:33:02.121Z,-145.56
2023-02-04T12:35:30.513Z,-145.56
2023-02-04T12:37:58.828Z,-145.56
2023-02-04T12:40:27.256Z,-145.56
2023-02-04T12:42:55.529Z,-145.56
2023-02-04T12:45:23.719Z,-145.56
2023-02-04T12:47:51.941Z,-145.56
2023-02-04T12:50:22.771Z,-145.56
2023-02-04T12:52:52.793Z,-145.56
2023-02-04T12:55:25.900Z,-145.56
2023-02-04T12:57:54.362Z,-145.56
2023-02-04T13:00:23.742Z,-145.56
2023-02-04T13:02:52.081Z,-145.56
2023-02-04T13:05:20.703Z,-145.56
2023-02-04T13:07:48.878Z,-145.56
2023-02-04T13:10:18.222Z,-145.56
2023-02-04T13:12:46.560Z,-145.56
2023-02-04T13:15:14.832Z,-145.56
2023-02-04T13:17:43.322Z,-145.56
2023-02-04T13:20:12.827Z,-145.56
2023-02-04T13:22:41.253Z,-145.56
2023-02-04T13:25:12.379Z,-145.56
2023-02-04T13:27:40.964Z,-145.56
2023-02-04T13:30:11.852Z,-145.56
2023-02-04T13:32:41.021Z,-145.56
2023-02-04T13:35:09.290Z,-145.56
2023-02-04T13:37:38.586Z,-145.56
2023-02-04T13:40:07.991Z,-145.56
2023-02-04T13:42:36.497Z,-145.56
2023-02-04T13:45:05.478Z,-145.56
2023-02-04T13:47:33.672Z,-145.56
2023-02-04T13:50:01.962Z,-145.56
2023-02-04T13:52:30.366Z,-145.56
2023-02-04T13:54:58.572Z,-145.56
2023-02-04T13:57:26.833Z,-145.56
2023-02-04T13:59:55.000Z,-145.56
2023-02-04T14:02:25.281Z,-145.56
2023-02-04T14:04:54.351Z,-145.56
2023-02-04T14:07:22.559Z,-145.56
2023-02-04T14:09:50.848Z,-145.56
2023-02-04T14:12:19.113Z,-145.56
2023-02-04T14:14:47.529Z,-145.56
2023-02-04T14:17:15.760Z,-145.56
2023-02-04T14:19:43.960Z,-145.56
2023-02-04T14:22:13.288Z,-145.56
2023-02-04T14:24:42.826Z,-145.56
2023-02-04T14:27:11.601Z,-145.56
2023-02-04T14:29:40.017Z,-145.56
2023-02-04T14:32:08.498Z,-145.56
2023-02-04T14:34:36.722Z,-145.56
2023-02-04T14:37:04.847Z,-145.56
2023-02-04T14:39:33.022Z,-145.56
2023-02-04T14:42:04.449Z,-145.56
2023-02-04T14:44:33.136Z,-145.56
2023-02-04T14:47:01.368Z,-145.56
2023-02-04T14:49:29.675Z,-145.56
2023-02-04T14:51:57.984Z,-145.56
2023-02-04T14:54:26.150Z,-145.56
2023-02-04T14:56:54.658Z,-145.56
2023-02-04T14:59:22.902Z,-145.56
2023-02-04T15:01:51.097Z,-145.56
2023-02-04T15:04:19.451Z,-145.56
2023-02-04T15:06:48.957Z,-145.56
2023-02-04T15:09:17.298Z,-145.56
2023-02-04T15:11:45.727Z,-145.56
2023-02-04T15:14:13.972Z,-145.56
2023-02-04T15:16:43.455Z,-145.56
2023-02-04T15:19:11.843Z,-145.56
2023-02-04T15:21:40.095Z,-145.56
2023-02-04T15:24:08.330Z,-145.56
2023-02-04T15:26:36.531Z,-145.56
2023-02-04T15:29:05.216Z,-145.56
2023-02-04T15:31:36.103Z,-145.56
2023-02-04T15:34:06.021Z,-145.56
2023-02-04T15:36:34.498Z,-145.56
2023-02-04T15:39:02.752Z,-145.56
2023-02-04T15:41:31.072Z,-145.56
2023-02-04T15:43:59.284Z,-145.56
2023-02-04T15:46:27.538Z,-145.56
2023-02-04T15:48:55.839Z,-145.56
2023-02-04T15:51:24.090Z,-145.56
2023-02-04T15:53:52.430Z,-145.56
2023-02-04T15:56:20.719Z,-145.56
2023-02-04T15:58:48.904Z,-145.56
2023-02-04T16:01:17.554Z,-145.56
2023-02-04T16:03:47.227Z,-145.56
2023-02-04T16:06:15.430Z,-145.56
2023-02-04T16:08:43.642Z,-145.56
2023-02-04T16:11:11.872Z,-145.56
2023-02-04T16:13:40.059Z,-145.56
2023-02-04T16:16:08.387Z,-145.56
2023-02-04T16:18:36.655Z,-145.56
2023-02-04T16:21:05.641Z,-145.56
2023-02-04T16:23:34.005Z,-145.56
2023-02-04T16:26:02.168Z,-145.56
2023-02-04T16:28:30.379Z,-145.56
2023-02-04T16:30:58.758Z,-145.56
2023-02-04T16:33:27.989Z,-145.56
2023-02-04T16:36:04.101Z,-145.56
2023-02-04T16:38:33.540Z,-145.56
2023-02-04T16:41:01.738Z,-145.56
2023-02-04T16:43:30.203Z,-145.56
2023-02-04T16:45:58.942Z,-145.56
2023-02-04T16:48:28.653Z,-145.56
2023-02-04T16:50:56.969Z,-145.56
2023-02-04T16:53:25.246Z,-145.56
2023-02-04T16:55:53.477Z,-145.56
2023-02-04T16:58:21.740Z,-145.56
2023-02-04T17:00:50.380Z,-145.56
2023-02-04T17:03:18.622Z,-145.56
2023-02-04T17:05:46.959Z,-145.56
2023-02-04T17:08:15.265Z,-145.56
2023-02-04T17:11:02.120Z,-145.56
2023-02-04T17:13:30.463Z,-145.56
2023-02-04T17:16:01.512Z,-145.56
2023-02-04T17:18:33.090Z,-145.56
2023-02-04T17:21:01.486Z,-145.56
2023-02-04T17:23:29.792Z,-145.56
2023-02-04T17:25:58.000Z,-145.56
2023-02-04T17:28:26.308Z,-145.56
2023-02-04T17:30:54.623Z,-145.56
2023-02-04T17:33:23.069Z,-145.56
2023-02-04T17:35:51.331Z,-145.56
2023-02-04T17:38:19.567Z,-145.56
2023-02-04T17:40:48.162Z,-145.56
2023-02-04T17:43:16.935Z,-145.56
2023-02-04T17:45:45.185Z,-145.56
2023-02-04T17:48:13.492Z,-145.56
2023-02-04T17:50:43.519Z,-145.56
2023-02-04T17:53:12.324Z,-145.56
2023-02-04T17:55:42.670Z,-145.56
2023-02-04T17:58:16.803Z,-145.56
2023-02-04T18:00:47.353Z,-145.56
2023-02-04T18:03:19.544Z,-145.56
2023-02-04T18:05:53.106Z,-145.56
2023-02-04T18:08:22.464Z,-145.56
2023-02-04T18:10:52.775Z,-145.56
2023-02-04T18:14:27.360Z,-145.56
2023-02-04T18:17:59.427Z,-145.56
2023-02-04T18:21:27.463Z,-145.56
2023-02-04T18:25:19.756Z,-145.56
2023-02-04T18:28:47.698Z,-145.56
2023-02-04T18:32:40.792Z,-145.56
2023-02-04T18:36:23.215Z,-145.56
2023-02-04T18:39:57.723Z,-145.56
2023-02-04T18:43:27.268Z,-145.56
2023-02-04T18:46:56.067Z,-145.56
2023-02-04T18:50:33.452Z,-145.56
2023-02-04T18:54:26.647Z,-145.56
2023-02-04T18:57:53.911Z,-145.56
2023-02-04T19:01:29.676Z,-145.56
2023-02-04T19:05:19.965Z,-145.56
2023-02-04T19:08:46.725Z,-145.56
2023-02-04T19:12:28.612Z,-145.56
2023-02-04T19:15:57.260Z,-145.56
2023-02-04T19:19:30.838Z,-145.56
2023-02-04T19:22:58.057Z,-145.56
2023-02-04T19:26:42.336Z,-145.56
2023-02-04T19:30:21.752Z,-145.56
2023-02-04T19:33:50.494Z,-145.56
2023-02-04T19:37:27.576Z,-145.56
2023-02-04T19:40:54.816Z,-145.56
2023-02-04T19:44:45.815Z,-145.56
2023-02-04T19:48:24.784Z,-145.56
2023-02-04T19:51:53.344Z,-145.56
2023-02-04T19:55:24.180Z,-145.56
2023-02-04T19:58:53.059Z,-145.56
2023-02-04T20:02:40.457Z,-145.56
2023-02-04T20:06:27.600Z,-145.56
2023-02-04T20:09:57.148Z,-145.56
2023-02-04T20:13:25.479Z,-145.56
2023-02-04T20:16:57.625Z,-145.56
2023-02-04T20:20:29.499Z,-145.56
2023-02-04T20:24:00.630Z,-145.56
2023-02-04T20:27:27.358Z,-145.56
2023-02-04T20:31:18.449Z,-145.56
2023-02-04T20:34:49.831Z,-145.56
2023-02-04T20:38:21.701Z,-145.56
2023-02-04T20:41:48.447Z,-145.56
2023-02-04T20:45:25.600Z,-145.56
2023-02-04T20:48:54.709Z,-145.56
2023-02-04T20:52:41.109Z,-145.56
2023-02-04T20:56:23.558Z,-145.56
2023-02-04T20:59:53.766Z,-145.56
2023-02-04T21:03:26.498Z,-145.56
2023-02-04T21:06:55.059Z,-145.56
2023-02-04T21:10:22.678Z,-145.56
2023-02-04T21:13:50.459Z,-145.56
2023-02-04T21:17:17.235Z,-145.56
2023-02-04T21:20:39.197Z,-145.56
2023-02-04T21:23:40.355Z,-145.56
2023-02-04T21:28:40.929Z,0.87
2023-02-04T21:31:11.634Z,0.87
2023-02-04T21:33:39.917Z,0.87
2023-02-04T21:36:08.581Z,5.75
2023-02-04T21:38:36.866Z,5.64
2023-02-04T21:41:05.519Z,5.62
2023-02-04T21:43:33.757Z,5.73
2023-02-04T21:46:02.031Z,5.69
2023-02-04T21:48:30.281Z,5.74
2023-02-04T21:50:58.480Z,5.72
2023-02-04T21:53:26.857Z,5.71
2023-02-04T21:55:55.091Z,5.87
2023-02-04T21:58:23.396Z,6.05
2023-02-04T22:00:51.561Z,6.09
2023-02-04T22:03:19.752Z,6.07
2023-02-04T22:05:47.944Z,6.11
2023-02-04T22:08:16.424Z,6.11
2023-02-04T22:10:44.637Z,6.09
2023-02-04T22:13:12.861Z,6.02
2023-02-04T22:15:41.032Z,6.04
2023-02-04T22:18:09.436Z,6.07
2023-02-04T22:20:39.440Z,6.06
2023-02-04T22:23:07.956Z,6.14
2023-02-04T22:25:36.278Z,6.12
2023-02-04T22:28:04.718Z,6.15
2023-02-04T22:30:33.052Z,6.20
2023-02-04T22:33:02.702Z,6.15
2023-02-04T22:35:35.112Z,6.10
2023-02-04T22:38:03.884Z,6.20
2023-02-04T22:40:32.088Z,6.19
2023-02-04T22:43:00.390Z,6.11
2023-02-04T22:45:28.527Z,6.02
2023-02-04T22:47:56.855Z,6.09
2023-02-04T22:50:25.040Z,6.00
2023-02-04T22:52:53.217Z,6.03
2023-02-04T22:55:21.507Z,5.93
2023-02-04T22:57:49.767Z,5.88
2023-02-04T23:00:20.739Z,5.84
2023-02-04T23:02:49.775Z,5.80
2023-02-04T23:05:18.149Z,5.69
2023-02-04T23:07:46.415Z,5.72
2023-02-04T23:10:14.880Z,5.67
2023-02-04T23:12:43.164Z,5.63
2023-02-04T23:15:12.404Z,5.53
2023-02-04T23:17:40.630Z,5.45
2023-02-04T23:20:09.205Z,5.45
2023-02-04T23:22:37.573Z,5.33
2023-02-04T23:25:06.802Z,5.30
2023-02-04T23:27:35.187Z,5.17
2023-02-04T23:30:05.844Z,5.12
2023-02-04T23:32:34.149Z,5.12
2023-02-04T23:35:02.346Z,5.01
2023-02-04T23:37:32.347Z,4.93
2023-02-04T23:40:00.573Z,4.89
2023-02-04T23:42:31.325Z,4.85
2023-02-04T23:44:59.741Z,4.86
2023-02-04T23:47:28.036Z,4.79
2023-02-04T23:49:56.209Z,4.70
2023-02-04T23:52:24.411Z,4.77
2023-02-04T23:54:52.629Z,4.77
2023-02-04T23:57:20.794Z,4.94
2023-02-04T23:59:49.034Z,4.89
